sensor_id;sensor_type;location;lat;lon;timestamp;P1;durP1;ratioP1;P2;durP2;ratioP2
59302;SDS011;45074;52.764;6.896;2023-04-01T00:00:21;8.40;;;4.32;;
59302;SDS011;45074;52.764;6.896;2023-04-01T00:02:47;9.52;;;4.50;;
59302;SDS011;45074;52.764;6.896;2023-04-01T00:05:13;7.90;;;4.43;;
59302;SDS011;45074;52.764;6.896;2023-04-01T00:07:41;7.65;;;4.50;;
59302;SDS011;45074;52.764;6.896;2023-04-01T00:10:08;8.32;;;4.30;;
59302;SDS011;45074;52.764;6.896;2023-04-01T00:12:35;8.27;;;4.30;;
59302;SDS011;45074;52.764;6.896;2023-04-01T00:15:02;8.57;;;4.55;;
59302;SDS011;45074;52.764;6.896;2023-04-01T00:17:28;9.07;;;4.18;;
59302;SDS011;45074;52.764;6.896;2023-04-01T00:19:54;10.32;;;4.55;;
59302;SDS011;45074;52.764;6.896;2023-04-01T00:22:21;8.07;;;4.35;;
59302;SDS011;45074;52.764;6.896;2023-04-01T00:24:47;8.63;;;4.38;;
59302;SDS011;45074;52.764;6.896;2023-04-01T00:27:14;8.75;;;4.82;;
59302;SDS011;45074;52.764;6.896;2023-04-01T00:29:44;8.82;;;4.00;;
59302;SDS011;45074;52.764;6.896;2023-04-01T00:32:11;8.68;;;3.95;;
59302;SDS011;45074;52.764;6.896;2023-04-01T00:34:37;8.10;;;4.40;;
59302;SDS011;45074;52.764;6.896;2023-04-01T00:37:05;9.57;;;4.22;;
59302;SDS011;45074;52.764;6.896;2023-04-01T00:39:31;8.02;;;4.80;;
59302;SDS011;45074;52.764;6.896;2023-04-01T00:41:58;11.00;;;4.28;;
59302;SDS011;45074;52.764;6.896;2023-04-01T00:44:25;8.88;;;4.20;;
59302;SDS011;45074;52.764;6.896;2023-04-01T00:46:53;7.85;;;4.32;;
59302;SDS011;45074;52.764;6.896;2023-04-01T00:49:20;7.85;;;4.10;;
59302;SDS011;45074;52.764;6.896;2023-04-01T00:54:18;7.88;;;4.03;;
59302;SDS011;45074;52.764;6.896;2023-04-01T00:57:08;7.57;;;3.92;;
59302;SDS011;45074;52.764;6.896;2023-04-01T01:02:07;7.78;;;3.83;;
59302;SDS011;45074;52.764;6.896;2023-04-01T01:04:35;8.15;;;3.90;;
59302;SDS011;45074;52.764;6.896;2023-04-01T01:10:08;9.23;;;4.13;;
59302;SDS011;45074;52.764;6.896;2023-04-01T01:15:46;5.95;;;3.53;;
59302;SDS011;45074;52.764;6.896;2023-04-01T01:32:19;9.02;;;5.10;;
59302;SDS011;45074;52.764;6.896;2023-04-01T01:37:09;7.65;;;3.95;;
59302;SDS011;45074;52.764;6.896;2023-04-01T01:39:37;7.78;;;3.70;;
59302;SDS011;45074;52.764;6.896;2023-04-01T01:42:06;9.30;;;3.78;;
59302;SDS011;45074;52.764;6.896;2023-04-01T01:44:36;6.97;;;4.20;;
59302;SDS011;45074;52.764;6.896;2023-04-01T01:47:03;8.85;;;3.97;;
59302;SDS011;45074;52.764;6.896;2023-04-01T01:49:29;8.75;;;4.40;;
59302;SDS011;45074;52.764;6.896;2023-04-01T01:51:58;7.97;;;4.25;;
59302;SDS011;45074;52.764;6.896;2023-04-01T01:54:24;8.35;;;4.60;;
59302;SDS011;45074;52.764;6.896;2023-04-01T01:56:52;7.82;;;4.22;;
59302;SDS011;45074;52.764;6.896;2023-04-01T01:59:26;10.43;;;4.65;;
59302;SDS011;45074;52.764;6.896;2023-04-01T02:01:54;7.72;;;4.05;;
59302;SDS011;45074;52.764;6.896;2023-04-01T02:04:21;11.57;;;4.88;;
59302;SDS011;45074;52.764;6.896;2023-04-01T02:06:56;8.45;;;4.40;;
59302;SDS011;45074;52.764;6.896;2023-04-01T02:09:26;9.30;;;4.82;;
59302;SDS011;45074;52.764;6.896;2023-04-01T02:11:53;10.85;;;4.78;;
59302;SDS011;45074;52.764;6.896;2023-04-01T02:14:23;10.37;;;4.87;;
59302;SDS011;45074;52.764;6.896;2023-04-01T02:17:00;8.63;;;4.60;;
59302;SDS011;45074;52.764;6.896;2023-04-01T02:19:51;9.63;;;4.78;;
59302;SDS011;45074;52.764;6.896;2023-04-01T02:22:53;9.25;;;4.35;;
59302;SDS011;45074;52.764;6.896;2023-04-01T02:25:22;9.68;;;5.10;;
59302;SDS011;45074;52.764;6.896;2023-04-01T02:27:50;7.97;;;4.68;;
59302;SDS011;45074;52.764;6.896;2023-04-01T02:30:17;8.10;;;4.50;;
59302;SDS011;45074;52.764;6.896;2023-04-01T02:32:43;8.88;;;4.70;;
59302;SDS011;45074;52.764;6.896;2023-04-01T02:35:11;9.80;;;4.93;;
59302;SDS011;45074;52.764;6.896;2023-04-01T02:37:39;10.00;;;4.45;;
59302;SDS011;45074;52.764;6.896;2023-04-01T02:40:08;10.20;;;5.07;;
59302;SDS011;45074;52.764;6.896;2023-04-01T02:42:36;8.93;;;4.40;;
59302;SDS011;45074;52.764;6.896;2023-04-01T02:45:02;9.10;;;5.05;;
59302;SDS011;45074;52.764;6.896;2023-04-01T02:47:29;11.60;;;5.25;;
59302;SDS011;45074;52.764;6.896;2023-04-01T02:49:55;9.57;;;4.90;;
59302;SDS011;45074;52.764;6.896;2023-04-01T02:52:27;9.35;;;4.70;;
59302;SDS011;45074;52.764;6.896;2023-04-01T02:54:53;9.17;;;4.60;;
59302;SDS011;45074;52.764;6.896;2023-04-01T02:57:19;8.15;;;4.80;;
59302;SDS011;45074;52.764;6.896;2023-04-01T02:59:45;8.70;;;4.63;;
59302;SDS011;45074;52.764;6.896;2023-04-01T03:02:11;8.10;;;4.57;;
59302;SDS011;45074;52.764;6.896;2023-04-01T03:04:38;9.20;;;4.88;;
59302;SDS011;45074;52.764;6.896;2023-04-01T03:07:04;10.25;;;4.93;;
59302;SDS011;45074;52.764;6.896;2023-04-01T03:09:30;8.30;;;4.80;;
59302;SDS011;45074;52.764;6.896;2023-04-01T03:11:56;9.45;;;4.65;;
59302;SDS011;45074;52.764;6.896;2023-04-01T03:14:22;7.95;;;5.00;;
59302;SDS011;45074;52.764;6.896;2023-04-01T03:16:48;9.30;;;4.90;;
59302;SDS011;45074;52.764;6.896;2023-04-01T03:19:14;9.98;;;4.75;;
59302;SDS011;45074;52.764;6.896;2023-04-01T03:21:40;8.57;;;4.50;;
59302;SDS011;45074;52.764;6.896;2023-04-01T03:24:06;8.13;;;4.40;;
59302;SDS011;45074;52.764;6.896;2023-04-01T03:26:33;8.15;;;4.43;;
59302;SDS011;45074;52.764;6.896;2023-04-01T03:28:59;9.27;;;4.70;;
59302;SDS011;45074;52.764;6.896;2023-04-01T03:31:25;8.00;;;4.47;;
59302;SDS011;45074;52.764;6.896;2023-04-01T03:33:51;8.25;;;4.60;;
59302;SDS011;45074;52.764;6.896;2023-04-01T03:36:17;8.65;;;4.28;;
59302;SDS011;45074;52.764;6.896;2023-04-01T03:38:44;8.27;;;4.55;;
59302;SDS011;45074;52.764;6.896;2023-04-01T03:41:14;9.57;;;4.47;;
59302;SDS011;45074;52.764;6.896;2023-04-01T03:43:41;7.38;;;4.00;;
59302;SDS011;45074;52.764;6.896;2023-04-01T03:46:07;9.77;;;4.50;;
59302;SDS011;45074;52.764;6.896;2023-04-01T03:48:33;8.43;;;4.63;;
59302;SDS011;45074;52.764;6.896;2023-04-01T03:50:59;8.98;;;4.43;;
59302;SDS011;45074;52.764;6.896;2023-04-01T03:53:25;8.18;;;4.43;;
59302;SDS011;45074;52.764;6.896;2023-04-01T03:55:52;10.10;;;4.13;;
59302;SDS011;45074;52.764;6.896;2023-04-01T03:58:18;8.98;;;4.32;;
59302;SDS011;45074;52.764;6.896;2023-04-01T04:00:44;9.15;;;4.25;;
59302;SDS011;45074;52.764;6.896;2023-04-01T04:03:10;6.82;;;3.70;;
59302;SDS011;45074;52.764;6.896;2023-04-01T04:05:36;7.90;;;3.97;;
59302;SDS011;45074;52.764;6.896;2023-04-01T04:08:02;8.13;;;4.25;;
59302;SDS011;45074;52.764;6.896;2023-04-01T04:10:28;8.05;;;3.80;;
59302;SDS011;45074;52.764;6.896;2023-04-01T04:12:55;7.13;;;3.97;;
59302;SDS011;45074;52.764;6.896;2023-04-01T04:15:21;7.00;;;3.83;;
59302;SDS011;45074;52.764;6.896;2023-04-01T04:17:47;7.57;;;3.90;;
59302;SDS011;45074;52.764;6.896;2023-04-01T04:20:14;7.07;;;3.55;;
59302;SDS011;45074;52.764;6.896;2023-04-01T04:22:40;7.38;;;3.55;;
59302;SDS011;45074;52.764;6.896;2023-04-01T04:25:06;6.35;;;3.30;;
59302;SDS011;45074;52.764;6.896;2023-04-01T04:27:33;7.47;;;3.83;;
59302;SDS011;45074;52.764;6.896;2023-04-01T04:29:59;7.15;;;3.67;;
59302;SDS011;45074;52.764;6.896;2023-04-01T04:32:25;7.05;;;3.45;;
59302;SDS011;45074;52.764;6.896;2023-04-01T04:34:51;7.00;;;3.80;;
59302;SDS011;45074;52.764;6.896;2023-04-01T04:37:17;8.90;;;3.63;;
59302;SDS011;45074;52.764;6.896;2023-04-01T04:39:43;8.55;;;4.35;;
59302;SDS011;45074;52.764;6.896;2023-04-01T04:42:09;8.05;;;4.32;;
59302;SDS011;45074;52.764;6.896;2023-04-01T04:44:36;8.10;;;4.03;;
59302;SDS011;45074;52.764;6.896;2023-04-01T04:47:02;8.48;;;4.07;;
59302;SDS011;45074;52.764;6.896;2023-04-01T04:49:28;9.18;;;4.65;;
59302;SDS011;45074;52.764;6.896;2023-04-01T04:51:54;10.10;;;5.32;;
59302;SDS011;45074;52.764;6.896;2023-04-01T04:54:20;10.70;;;5.47;;
59302;SDS011;45074;52.764;6.896;2023-04-01T04:56:46;11.95;;;5.80;;
59302;SDS011;45074;52.764;6.896;2023-04-01T04:59:12;10.10;;;5.38;;
59302;SDS011;45074;52.764;6.896;2023-04-01T05:01:38;11.20;;;6.63;;
59302;SDS011;45074;52.764;6.896;2023-04-01T05:04:04;11.00;;;6.43;;
59302;SDS011;45074;52.764;6.896;2023-04-01T05:06:30;11.27;;;6.45;;
59302;SDS011;45074;52.764;6.896;2023-04-01T05:08:56;13.43;;;6.72;;
59302;SDS011;45074;52.764;6.896;2023-04-01T05:11:23;10.70;;;6.45;;
59302;SDS011;45074;52.764;6.896;2023-04-01T05:13:50;10.80;;;6.85;;
59302;SDS011;45074;52.764;6.896;2023-04-01T05:16:17;10.52;;;6.38;;
59302;SDS011;45074;52.764;6.896;2023-04-01T05:18:44;12.05;;;7.05;;
59302;SDS011;45074;52.764;6.896;2023-04-01T05:21:11;11.32;;;6.75;;
59302;SDS011;45074;52.764;6.896;2023-04-01T05:23:38;11.32;;;6.70;;
59302;SDS011;45074;52.764;6.896;2023-04-01T05:26:04;13.30;;;8.00;;
59302;SDS011;45074;52.764;6.896;2023-04-01T05:28:32;13.70;;;8.25;;
59302;SDS011;45074;52.764;6.896;2023-04-01T05:30:58;14.80;;;9.25;;
59302;SDS011;45074;52.764;6.896;2023-04-01T05:33:25;15.52;;;9.20;;
59302;SDS011;45074;52.764;6.896;2023-04-01T05:35:52;16.95;;;9.15;;
59302;SDS011;45074;52.764;6.896;2023-04-01T05:38:18;16.35;;;9.77;;
59302;SDS011;45074;52.764;6.896;2023-04-01T05:40:44;16.15;;;9.98;;
59302;SDS011;45074;52.764;6.896;2023-04-01T05:43:10;14.85;;;9.60;;
59302;SDS011;45074;52.764;6.896;2023-04-01T05:45:36;15.38;;;10.07;;
59302;SDS011;45074;52.764;6.896;2023-04-01T05:48:02;15.68;;;9.98;;
59302;SDS011;45074;52.764;6.896;2023-04-01T05:50:29;17.90;;;10.52;;
59302;SDS011;45074;52.764;6.896;2023-04-01T05:52:55;17.42;;;10.40;;
59302;SDS011;45074;52.764;6.896;2023-04-01T05:55:21;17.05;;;9.98;;
59302;SDS011;45074;52.764;6.896;2023-04-01T05:57:47;15.32;;;9.32;;
59302;SDS011;45074;52.764;6.896;2023-04-01T06:00:15;16.20;;;9.75;;
59302;SDS011;45074;52.764;6.896;2023-04-01T06:02:41;16.63;;;9.05;;
59302;SDS011;45074;52.764;6.896;2023-04-01T06:05:15;16.83;;;9.80;;
59302;SDS011;45074;52.764;6.896;2023-04-01T06:07:44;15.02;;;9.55;;
59302;SDS011;45074;52.764;6.896;2023-04-01T06:10:14;15.95;;;9.98;;
59302;SDS011;45074;52.764;6.896;2023-04-01T06:15:39;16.60;;;10.00;;
59302;SDS011;45074;52.764;6.896;2023-04-01T06:27:03;16.38;;;9.88;;
59302;SDS011;45074;52.764;6.896;2023-04-01T06:32:18;16.45;;;9.68;;
59302;SDS011;45074;52.764;6.896;2023-04-01T06:35:11;17.42;;;10.68;;
59302;SDS011;45074;52.764;6.896;2023-04-01T06:54:14;16.13;;;10.05;;
59302;SDS011;45074;52.764;6.896;2023-04-01T06:56:19;18.67;;;10.32;;
59302;SDS011;45074;52.764;6.896;2023-04-01T07:01:16;16.98;;;10.07;;
59302;SDS011;45074;52.764;6.896;2023-04-01T07:03:53;16.88;;;9.35;;
59302;SDS011;45074;52.764;6.896;2023-04-01T07:06:30;15.90;;;9.57;;
59302;SDS011;45074;52.764;6.896;2023-04-01T07:09:01;16.45;;;9.73;;
59302;SDS011;45074;52.764;6.896;2023-04-01T07:11:35;16.92;;;10.13;;
59302;SDS011;45074;52.764;6.896;2023-04-01T07:14:10;17.10;;;9.55;;
59302;SDS011;45074;52.764;6.896;2023-04-01T07:22:31;14.57;;;9.13;;
59302;SDS011;45074;52.764;6.896;2023-04-01T07:25:07;17.05;;;8.90;;
59302;SDS011;45074;52.764;6.896;2023-04-01T07:27:41;15.45;;;9.23;;
59302;SDS011;45074;52.764;6.896;2023-04-01T07:30:13;16.50;;;9.43;;
59302;SDS011;45074;52.764;6.896;2023-04-01T07:44:23;15.63;;;8.93;;
59302;SDS011;45074;52.764;6.896;2023-04-01T07:46:43;15.82;;;8.77;;
59302;SDS011;45074;52.764;6.896;2023-04-01T07:49:23;16.05;;;8.98;;
59302;SDS011;45074;52.764;6.896;2023-04-01T07:55:04;15.60;;;9.18;;
59302;SDS011;45074;52.764;6.896;2023-04-01T08:00:24;17.05;;;9.35;;
59302;SDS011;45074;52.764;6.896;2023-04-01T08:05:51;15.57;;;8.68;;
59302;SDS011;45074;52.764;6.896;2023-04-01T08:08:31;14.85;;;8.50;;
59302;SDS011;45074;52.764;6.896;2023-04-01T08:11:07;14.70;;;8.77;;
59302;SDS011;45074;52.764;6.896;2023-04-01T08:14:03;14.40;;;7.95;;
59302;SDS011;45074;52.764;6.896;2023-04-01T08:16:53;11.70;;;6.97;;
59302;SDS011;45074;52.764;6.896;2023-04-01T08:19:46;11.07;;;6.45;;
59302;SDS011;45074;52.764;6.896;2023-04-01T08:22:45;10.13;;;5.57;;
59302;SDS011;45074;52.764;6.896;2023-04-01T08:25:24;10.88;;;5.50;;
59302;SDS011;45074;52.764;6.896;2023-04-01T08:30:24;9.70;;;5.00;;
59302;SDS011;45074;52.764;6.896;2023-04-01T08:33:14;8.75;;;4.70;;
59302;SDS011;45074;52.764;6.896;2023-04-01T08:35:56;7.97;;;4.32;;
59302;SDS011;45074;52.764;6.896;2023-04-01T08:43:53;6.72;;;3.38;;
59302;SDS011;45074;52.764;6.896;2023-04-01T08:52:49;7.07;;;3.17;;
59302;SDS011;45074;52.764;6.896;2023-04-01T08:56:10;6.25;;;2.85;;
59302;SDS011;45074;52.764;6.896;2023-04-01T09:04:05;4.35;;;2.20;;
59302;SDS011;45074;52.764;6.896;2023-04-01T09:07:09;3.88;;;2.10;;
59302;SDS011;45074;52.764;6.896;2023-04-01T09:29:21;8.48;;;4.65;;
59302;SDS011;45074;52.764;6.896;2023-04-01T09:37:52;8.93;;;4.55;;
59302;SDS011;45074;52.764;6.896;2023-04-01T09:45:34;8.43;;;4.65;;
59302;SDS011;45074;52.764;6.896;2023-04-01T09:48:29;9.07;;;5.35;;
59302;SDS011;45074;52.764;6.896;2023-04-01T09:53:48;8.52;;;5.13;;
59302;SDS011;45074;52.764;6.896;2023-04-01T10:04:42;9.30;;;4.90;;
59302;SDS011;45074;52.764;6.896;2023-04-01T10:15:05;8.77;;;5.05;;
59302;SDS011;45074;52.764;6.896;2023-04-01T10:21:05;8.10;;;4.75;;
59302;SDS011;45074;52.764;6.896;2023-04-01T10:26:38;8.02;;;4.57;;
59302;SDS011;45074;52.764;6.896;2023-04-01T10:38:10;7.28;;;4.13;;
59302;SDS011;45074;52.764;6.896;2023-04-01T10:40:53;8.75;;;4.82;;
59302;SDS011;45074;52.764;6.896;2023-04-01T10:44:20;7.72;;;4.20;;
59302;SDS011;45074;52.764;6.896;2023-04-01T10:52:53;7.18;;;4.28;;
59302;SDS011;45074;52.764;6.896;2023-04-01T10:58:34;8.73;;;4.75;;
59302;SDS011;45074;52.764;6.896;2023-04-01T11:01:36;8.02;;;4.68;;
59302;SDS011;45074;52.764;6.896;2023-04-01T11:20:37;9.65;;;5.60;;
59302;SDS011;45074;52.764;6.896;2023-04-01T11:25:59;10.63;;;6.60;;
59302;SDS011;45074;52.764;6.896;2023-04-01T11:42:41;10.05;;;7.07;;
59302;SDS011;45074;52.764;6.896;2023-04-01T11:56:32;8.88;;;5.78;;
59302;SDS011;45074;52.764;6.896;2023-04-01T12:04:49;8.38;;;5.63;;
59302;SDS011;45074;52.764;6.896;2023-04-01T12:07:44;8.23;;;5.53;;
59302;SDS011;45074;52.764;6.896;2023-04-01T12:10:20;11.30;;;10.20;;
59302;SDS011;45074;52.764;6.896;2023-04-01T12:16:02;9.10;;;6.15;;
59302;SDS011;45074;52.764;6.896;2023-04-01T12:24:32;7.00;;;4.70;;
59302;SDS011;45074;52.764;6.896;2023-04-01T12:33:02;7.38;;;5.00;;
59302;SDS011;45074;52.764;6.896;2023-04-01T12:35:59;6.65;;;4.10;;
59302;SDS011;45074;52.764;6.896;2023-04-01T12:41:16;7.22;;;4.53;;
59302;SDS011;45074;52.764;6.896;2023-04-01T12:51:41;8.60;;;5.13;;
59302;SDS011;45074;52.764;6.896;2023-04-01T13:02:47;7.95;;;5.10;;
59302;SDS011;45074;52.764;6.896;2023-04-01T13:08:22;5.70;;;3.88;;
59302;SDS011;45074;52.764;6.896;2023-04-01T13:11:02;6.20;;;3.97;;
59302;SDS011;45074;52.764;6.896;2023-04-01T13:13:44;6.80;;;4.10;;
59302;SDS011;45074;52.764;6.896;2023-04-01T13:16:39;6.15;;;3.80;;
59302;SDS011;45074;52.764;6.896;2023-04-01T13:19:21;6.50;;;3.92;;
59302;SDS011;45074;52.764;6.896;2023-04-01T13:32:23;8.55;;;5.50;;
59302;SDS011;45074;52.764;6.896;2023-04-01T13:38:02;6.90;;;4.47;;
59302;SDS011;45074;52.764;6.896;2023-04-01T13:49:08;6.63;;;3.92;;
59302;SDS011;45074;52.764;6.896;2023-04-01T14:02:20;5.70;;;3.63;;
59302;SDS011;45074;52.764;6.896;2023-04-01T14:07:58;5.95;;;3.72;;
59302;SDS011;45074;52.764;6.896;2023-04-01T14:11:04;7.60;;;4.82;;
59302;SDS011;45074;52.764;6.896;2023-04-01T14:29:52;7.00;;;4.20;;
59302;SDS011;45074;52.764;6.896;2023-04-01T14:32:51;6.65;;;4.40;;
59302;SDS011;45074;52.764;6.896;2023-04-01T14:35:27;6.80;;;4.43;;
59302;SDS011;45074;52.764;6.896;2023-04-01T14:46:08;9.07;;;5.93;;
59302;SDS011;45074;52.764;6.896;2023-04-01T14:52:06;9.85;;;7.28;;
59302;SDS011;45074;52.764;6.896;2023-04-01T14:58:15;10.60;;;7.45;;
59302;SDS011;45074;52.764;6.896;2023-04-01T15:00:47;9.25;;;6.05;;
59302;SDS011;45074;52.764;6.896;2023-04-01T15:09:06;7.40;;;5.22;;
59302;SDS011;45074;52.764;6.896;2023-04-01T15:14:36;7.63;;;4.90;;
59302;SDS011;45074;52.764;6.896;2023-04-01T15:27:49;7.05;;;4.75;;
59302;SDS011;45074;52.764;6.896;2023-04-01T15:33:15;4.93;;;3.67;;
59302;SDS011;45074;52.764;6.896;2023-04-01T15:38:31;6.35;;;4.38;;
59302;SDS011;45074;52.764;6.896;2023-04-01T15:41:07;6.78;;;4.85;;
59302;SDS011;45074;52.764;6.896;2023-04-01T16:02:18;4.05;;;3.05;;
59302;SDS011;45074;52.764;6.896;2023-04-01T16:05:09;4.88;;;3.20;;
59302;SDS011;45074;52.764;6.896;2023-04-01T16:16:10;4.38;;;3.33;;
59302;SDS011;45074;52.764;6.896;2023-04-01T16:25:17;5.28;;;3.70;;
59302;SDS011;45074;52.764;6.896;2023-04-01T16:33:22;5.70;;;3.70;;
59302;SDS011;45074;52.764;6.896;2023-04-01T16:38:36;4.18;;;3.00;;
59302;SDS011;45074;52.764;6.896;2023-04-01T16:44:49;4.82;;;3.28;;
59302;SDS011;45074;52.764;6.896;2023-04-01T16:47:32;5.95;;;3.40;;
59302;SDS011;45074;52.764;6.896;2023-04-01T16:50:27;4.85;;;3.50;;
59302;SDS011;45074;52.764;6.896;2023-04-01T16:53:16;5.78;;;4.18;;
59302;SDS011;45074;52.764;6.896;2023-04-01T16:55:48;5.80;;;4.05;;
59302;SDS011;45074;52.764;6.896;2023-04-01T16:58:27;6.22;;;4.28;;
59302;SDS011;45074;52.764;6.896;2023-04-01T17:01:00;6.75;;;4.80;;
59302;SDS011;45074;52.764;6.896;2023-04-01T17:03:39;6.07;;;4.30;;
59302;SDS011;45074;52.764;6.896;2023-04-01T17:28:42;8.18;;;5.13;;
59302;SDS011;45074;52.764;6.896;2023-04-01T17:33:50;8.73;;;6.43;;
59302;SDS011;45074;52.764;6.896;2023-04-01T17:47:36;9.20;;;6.85;;
59302;SDS011;45074;52.764;6.896;2023-04-01T17:50:24;8.63;;;6.13;;
59302;SDS011;45074;52.764;6.896;2023-04-01T17:53:03;7.82;;;5.70;;
59302;SDS011;45074;52.764;6.896;2023-04-01T17:55:53;8.95;;;6.00;;
59302;SDS011;45074;52.764;6.896;2023-04-01T18:17:04;11.52;;;8.07;;
59302;SDS011;45074;52.764;6.896;2023-04-01T18:22:17;10.32;;;7.18;;
59302;SDS011;45074;52.764;6.896;2023-04-01T18:27:36;10.80;;;7.60;;
59302;SDS011;45074;52.764;6.896;2023-04-01T18:30:45;11.37;;;6.80;;
59302;SDS011;45074;52.764;6.896;2023-04-01T18:32:58;10.13;;;6.38;;
59302;SDS011;45074;52.764;6.896;2023-04-01T18:45:30;10.10;;;7.25;;
59302;SDS011;45074;52.764;6.896;2023-04-01T18:48:00;10.75;;;8.38;;
59302;SDS011;45074;52.764;6.896;2023-04-01T18:50:32;11.43;;;8.73;;
59302;SDS011;45074;52.764;6.896;2023-04-01T18:53:23;11.52;;;8.55;;
59302;SDS011;45074;52.764;6.896;2023-04-01T18:55:51;11.32;;;8.00;;
59302;SDS011;45074;52.764;6.896;2023-04-01T19:00:47;11.00;;;8.00;;
59302;SDS011;45074;52.764;6.896;2023-04-01T19:08:51;10.90;;;7.88;;
59302;SDS011;45074;52.764;6.896;2023-04-01T19:17:23;11.67;;;8.83;;
59302;SDS011;45074;52.764;6.896;2023-04-01T19:25:43;10.63;;;8.40;;
59302;SDS011;45074;52.764;6.896;2023-04-01T19:42:02;11.50;;;8.77;;
59302;SDS011;45074;52.764;6.896;2023-04-01T19:44:38;13.13;;;8.80;;
59302;SDS011;45074;52.764;6.896;2023-04-01T19:47:53;11.68;;;8.90;;
59302;SDS011;45074;52.764;6.896;2023-04-01T19:50:39;12.13;;;9.35;;
59302;SDS011;45074;52.764;6.896;2023-04-01T19:58:24;12.50;;;8.35;;
59302;SDS011;45074;52.764;6.896;2023-04-01T20:00:57;13.07;;;8.52;;
59302;SDS011;45074;52.764;6.896;2023-04-01T20:03:34;12.95;;;8.95;;
59302;SDS011;45074;52.764;6.896;2023-04-01T20:06:44;11.52;;;8.23;;
59302;SDS011;45074;52.764;6.896;2023-04-01T20:15:00;12.05;;;8.13;;
59302;SDS011;45074;52.764;6.896;2023-04-01T20:17:45;12.18;;;8.75;;
59302;SDS011;45074;52.764;6.896;2023-04-01T20:22:53;12.27;;;8.35;;
59302;SDS011;45074;52.764;6.896;2023-04-01T20:25:30;12.05;;;8.38;;
59302;SDS011;45074;52.764;6.896;2023-04-01T20:38:51;12.32;;;8.23;;
59302;SDS011;45074;52.764;6.896;2023-04-01T20:50:23;14.02;;;8.10;;
59302;SDS011;45074;52.764;6.896;2023-04-01T20:53:04;12.68;;;7.88;;
59302;SDS011;45074;52.764;6.896;2023-04-01T21:03:47;15.00;;;9.77;;
59302;SDS011;45074;52.764;6.896;2023-04-01T21:09:22;16.60;;;9.63;;
59302;SDS011;45074;52.764;6.896;2023-04-01T21:12:26;14.35;;;9.88;;
59302;SDS011;45074;52.764;6.896;2023-04-01T21:17:49;14.55;;;9.68;;
59302;SDS011;45074;52.764;6.896;2023-04-01T21:20:36;15.68;;;10.48;;
59302;SDS011;45074;52.764;6.896;2023-04-01T21:28:38;16.48;;;10.70;;
59302;SDS011;45074;52.764;6.896;2023-04-01T21:44:26;14.43;;;9.93;;
59302;SDS011;45074;52.764;6.896;2023-04-01T21:50:27;13.00;;;9.02;;
59302;SDS011;45074;52.764;6.896;2023-04-01T22:00:23;15.23;;;10.65;;
59302;SDS011;45074;52.764;6.896;2023-04-01T22:02:56;15.45;;;10.05;;
59302;SDS011;45074;52.764;6.896;2023-04-01T22:08:46;15.05;;;9.50;;
59302;SDS011;45074;52.764;6.896;2023-04-01T22:11:19;14.20;;;8.57;;
59302;SDS011;45074;52.764;6.896;2023-04-01T22:25:01;14.40;;;9.40;;
59302;SDS011;45074;52.764;6.896;2023-04-01T22:27:43;13.77;;;8.90;;
59302;SDS011;45074;52.764;6.896;2023-04-01T22:30:24;12.15;;;8.80;;
59302;SDS011;45074;52.764;6.896;2023-04-01T22:32:59;13.00;;;8.88;;
59302;SDS011;45074;52.764;6.896;2023-04-01T22:38:52;14.25;;;9.20;;
59302;SDS011;45074;52.764;6.896;2023-04-01T22:47:58;12.43;;;8.55;;
59302;SDS011;45074;52.764;6.896;2023-04-01T22:50:40;12.50;;;8.80;;
59302;SDS011;45074;52.764;6.896;2023-04-01T22:53:18;12.45;;;8.48;;
59302;SDS011;45074;52.764;6.896;2023-04-01T22:55:57;13.60;;;8.95;;
59302;SDS011;45074;52.764;6.896;2023-04-01T23:01:05;14.48;;;9.15;;
59302;SDS011;45074;52.764;6.896;2023-04-01T23:03:37;15.35;;;9.27;;
59302;SDS011;45074;52.764;6.896;2023-04-01T23:06:05;12.80;;;8.27;;
59302;SDS011;45074;52.764;6.896;2023-04-01T23:08:53;12.05;;;8.23;;
59302;SDS011;45074;52.764;6.896;2023-04-01T23:11:37;12.25;;;8.18;;
59302;SDS011;45074;52.764;6.896;2023-04-01T23:14:25;13.73;;;8.48;;
59302;SDS011;45074;52.764;6.896;2023-04-01T23:27:43;13.38;;;8.80;;
59302;SDS011;45074;52.764;6.896;2023-04-01T23:35:51;13.43;;;9.25;;
59302;SDS011;45074;52.764;6.896;2023-04-01T23:38:21;15.98;;;8.88;;
59302;SDS011;45074;52.764;6.896;2023-04-01T23:40:49;15.85;;;9.38;;
59302;SDS011;45074;52.764;6.896;2023-04-01T23:43:27;12.95;;;8.15;;
59302;SDS011;45074;52.764;6.896;2023-04-01T23:45:59;14.00;;;9.05;;
59302;SDS011;45074;52.764;6.896;2023-04-01T23:51:10;14.07;;;8.88;;
59302;SDS011;45074;52.764;6.896;2023-04-01T23:53:45;13.70;;;9.00;;
59302;SDS011;45074;52.764;6.896;2023-04-01T23:56:12;12.55;;;8.45;;
59302;SDS011;45074;52.764;6.896;2023-04-01T23:58:44;13.98;;;8.60;;
